Time;durP1;ratioP1;P1;durP2;ratioP2;P2;SDS_P1;SDS_P2;PMS_P1;PMS_P2;Temp;Humidity;BMP_temperature;BMP_pressure;BME280_temperature;BME280_humidity;BME280_pressure;Samples;Min_cycle;Max_cycle;Signal;HPM_P1;HPM_P2
2021/12/11 00:00:28;;;;;;;4.70;2.20;;;;;;;0.63;100.00;94765.50;5037695;28;20464;-74
2021/12/11 00:03:17;;;;;;;3.87;2.40;;;;;;;0.60;100.00;94760.59;5013165;28;20479;-74
2021/12/11 00:05:47;;;;;;;4.47;2.53;;;;;;;0.58;100.00;94766.88;5030344;28;20980;-74
2021/12/11 00:08:17;;;;;;;6.20;2.43;;;;;;;0.60;100.00;94772.72;5019978;28;20459;-74
2021/12/11 00:10:58;;;;;;;4.90;2.33;;;;;;;0.60;100.00;94780.47;5024063;28;20455;-75
2021/12/11 00:13:31;;;;;;;4.93;2.93;;;;;;;0.61;100.00;94784.72;5022454;28;20547;-74
2021/12/11 00:15:58;;;;;;;6.00;2.70;;;;;;;0.61;100.00;94782.13;5042480;28;21004;-74
2021/12/11 00:18:29;;;;;;;4.13;2.40;;;;;;;0.62;100.00;94783.75;5032139;28;20443;-74
2021/12/11 00:21:09;;;;;;;5.37;2.33;;;;;;;0.60;100.00;94793.41;5024753;28;20506;-74
2021/12/11 00:23:41;;;;;;;5.60;2.83;;;;;;;0.59;100.00;94790.00;5018628;28;20473;-74
2021/12/11 00:26:09;;;;;;;6.23;3.00;;;;;;;0.62;100.00;94796.69;5037750;28;20484;-74
2021/12/11 00:28:48;;;;;;;4.47;2.20;;;;;;;0.62;100.00;94802.69;5041005;28;20462;-74
2021/12/11 00:31:14;;;;;;;9.23;4.67;;;;;;;0.60;100.00;94794.22;5012894;28;21072;-74
2021/12/11 00:33:40;;;;;;;4.73;2.50;;;;;;;0.65;100.00;94802.41;5032299;28;20455;-74
2021/12/11 00:36:12;;;;;;;5.83;2.87;;;;;;;0.70;100.00;94807.19;5028295;28;20526;-74
2021/12/11 00:38:38;;;;;;;5.53;2.70;;;;;;;0.68;100.00;94816.88;5014999;28;20036;-74
2021/12/11 00:41:07;;;;;;;4.37;2.30;;;;;;;0.70;100.00;94818.38;5034326;28;20487;-74
2021/12/11 00:43:35;;;;;;;6.57;2.53;;;;;;;0.70;100.00;94813.19;5028979;28;20805;-74
2021/12/11 00:46:06;;;;;;;4.37;2.23;;;;;;;0.73;100.00;94819.03;5019792;28;20522;-75
2021/12/11 00:48:33;;;;;;;3.00;1.50;;;;;;;0.72;100.00;94828.56;5031345;28;20476;-74
2021/12/11 00:51:07;;;;;;;4.97;2.07;;;;;;;0.65;100.00;94833.47;5039427;28;20420;-75
2021/12/11 00:53:46;;;;;;;4.00;1.83;;;;;;;0.64;100.00;94834.44;5031053;28;20040;-74
2021/12/11 00:56:25;;;;;;;4.40;1.77;;;;;;;0.60;100.00;94842.56;5036405;28;20471;-74
2021/12/11 00:58:55;;;;;;;4.13;1.67;;;;;;;0.56;100.00;94852.34;5014877;28;20071;-75
2021/12/11 01:01:34;;;;;;;4.23;1.80;;;;;;;0.52;100.00;94853.59;5028743;28;20446;-74
2021/12/11 01:04:09;;;;;;;4.23;2.10;;;;;;;0.50;100.00;94867.59;5028173;28;20539;-74
2021/12/11 01:06:53;;;;;;;4.97;2.93;;;;;;;0.44;100.00;94872.34;5029162;28;21043;-75
2021/12/11 01:09:24;;;;;;;22.30;11.00;;;;;;;0.37;100.00;94878.16;5005251;28;20463;-74
2021/12/11 01:11:52;;;;;;;4.70;2.50;;;;;;;0.35;100.00;94880.06;5037859;28;20027;-73
2021/12/11 01:14:35;;;;;;;3.90;2.03;;;;;;;0.33;100.00;94893.13;5032770;28;20790;-74
2021/12/11 01:17:11;;;;;;;3.43;1.83;;;;;;;0.30;100.00;94898.53;5039137;28;20466;-74
2021/12/11 01:19:39;;;;;;;3.43;1.80;;;;;;;0.22;100.00;94912.13;5016115;28;20464;-74
2021/12/11 01:22:36;;;;;;;4.27;2.00;;;;;;;0.25;100.00;94911.06;5038363;28;20448;-74
2021/12/11 01:25:22;;;;;;;3.57;1.47;;;;;;;0.12;100.00;94924.19;5036099;28;20452;-74
2021/12/11 01:27:53;;;;;;;5.37;2.03;;;;;;;0.02;100.00;94925.88;5034511;28;20463;-74
2021/12/11 01:30:24;;;;;;;3.30;1.57;;;;;;;-0.08;100.00;94936.16;5023842;28;20436;-74
2021/12/11 01:32:50;;;;;;;3.50;1.60;;;;;;;-0.13;100.00;94940.09;5026020;28;20436;-74
2021/12/11 01:35:17;;;;;;;2.63;1.50;;;;;;;-0.16;100.00;94937.75;5027670;28;20444;-75
2021/12/11 01:37:49;;;;;;;2.90;1.43;;;;;;;-0.24;100.00;94943.53;5028232;28;20498;-74
2021/12/11 01:40:19;;;;;;;3.33;1.60;;;;;;;-0.25;100.00;94954.81;5038888;28;20494;-74
2021/12/11 01:42:46;;;;;;;2.83;1.47;;;;;;;-0.25;100.00;94955.63;5028412;28;20466;-75
2021/12/11 01:45:15;;;;;;;4.23;1.60;;;;;;;-0.25;100.00;94958.22;5039361;28;20511;-74
2021/12/11 01:47:45;;;;;;;2.90;1.70;;;;;;;-0.27;100.00;94960.13;5034079;28;20479;-75
2021/12/11 01:50:33;;;;;;;3.13;1.40;;;;;;;-0.27;100.00;94972.19;5035877;28;20475;-75
2021/12/11 01:53:08;;;;;;;2.47;1.17;;;;;;;-0.21;100.00;94981.22;5020048;28;20579;-74
2021/12/11 01:55:53;;;;;;;1.80;1.10;;;;;;;-0.26;100.00;94985.00;5036695;28;20514;-75
2021/12/11 01:58:34;;;;;;;2.23;1.30;;;;;;;-0.21;100.00;94981.22;5031313;28;20471;-74
2021/12/11 02:01:05;;;;;;;2.20;1.13;;;;;;;-0.25;100.00;94991.81;5025645;28;20530;-74
2021/12/11 02:03:32;;;;;;;1.80;1.10;;;;;;;-0.27;100.00;94988.53;5022129;28;20498;-74
2021/12/11 02:05:58;;;;;;;2.10;1.30;;;;;;;-0.28;100.00;95001.56;5029043;28;20468;-75
2021/12/11 02:08:31;;;;;;;2.80;1.40;;;;;;;-0.27;100.00;94998.88;5011100;28;20573;-75
2021/12/11 02:11:09;;;;;;;3.33;1.70;;;;;;;-0.30;100.00;95013.81;5027618;28;20452;-75
2021/12/11 02:13:46;;;;;;;2.93;1.40;;;;;;;-0.27;100.00;95009.19;5037204;28;20029;-74
2021/12/11 02:16:30;;;;;;;3.67;1.80;;;;;;;-0.30;100.00;95017.19;5027714;28;20467;-74
2021/12/11 02:19:15;;;;;;;2.60;1.38;;;;;;;-0.31;100.00;95023.28;5018304;28;20580;-74
2021/12/11 02:21:55;;;;;;;3.77;1.60;;;;;;;-0.33;100.00;95025.19;5034198;28;20025;-74
2021/12/11 02:24:24;;;;;;;3.10;1.50;;;;;;;-0.33;100.00;95026.97;5030878;28;20442;-75
2021/12/11 02:26:54;;;;;;;4.07;1.60;;;;;;;-0.34;100.00;95031.28;5031009;28;20499;-75
2021/12/11 02:29:28;;;;;;;4.27;2.00;;;;;;;-0.36;100.00;95035.75;5035038;28;20535;-74
2021/12/11 02:32:05;;;;;;;2.17;1.33;;;;;;;-0.36;100.00;95040.94;5025282;28;20447;-74
2021/12/11 02:34:44;;;;;;;2.30;1.20;;;;;;;-0.33;100.00;95040.69;5026521;28;21031;-74
2021/12/11 02:37:39;;;;;;;2.30;1.33;;;;;;;-0.35;100.00;95058.06;5013057;28;20494;-75
2021/12/11 02:40:18;;;;;;;2.30;1.30;;;;;;;-0.36;100.00;95060.78;5019808;28;21379;-73
2021/12/11 02:42:59;;;;;;;2.63;1.50;;;;;;;-0.36;100.00;95061.59;5012552;28;20469;-74
2021/12/11 02:45:49;;;;;;;2.67;1.37;;;;;;;-0.36;100.00;95064.19;5023705;28;20468;-74
2021/12/11 02:48:28;;;;;;;3.47;2.00;;;;;;;-0.38;100.00;95068.63;5039493;28;20459;-74
2021/12/11 02:51:18;;;;;;;3.80;1.97;;;;;;;-0.40;100.00;95077.44;5034529;28;21444;-74
2021/12/11 02:53:54;;;;;;;3.40;1.73;;;;;;;-0.38;100.00;95078.97;5036007;28;20795;-74
2021/12/11 02:56:36;;;;;;;2.63;1.60;;;;;;;-0.40;100.00;95082.59;5027982;28;20547;-75
2021/12/11 02:59:13;;;;;;;2.93;1.53;;;;;;;-0.39;100.00;95084.25;5027268;28;20468;-74
2021/12/11 03:01:51;;;;;;;3.83;2.10;;;;;;;-0.43;100.00;95086.28;5019048;28;20447;-74
2021/12/11 03:04:27;;;;;;;3.77;2.10;;;;;;;-0.44;100.00;95094.13;5029593;28;20520;-74
2021/12/11 03:06:55;;;;;;;4.60;2.20;;;;;;;-0.41;100.00;95099.06;5035853;28;20519;-74
2021/12/11 03:09:27;;;;;;;3.33;2.10;;;;;;;-0.41;100.00;95110.19;5034686;28;20547;-74
2021/12/11 03:11:55;;;;;;;4.23;2.30;;;;;;;-0.43;100.00;95117.25;5019927;28;20467;-74
2021/12/11 03:14:23;;;;;;;4.03;2.40;;;;;;;-0.43;100.00;95116.44;5020997;28;20468;-75
2021/12/11 03:16:50;;;;;;;4.13;2.40;;;;;;;-0.42;100.00;95118.91;5023268;28;20464;-74
2021/12/11 03:19:22;;;;;;;3.77;2.30;;;;;;;-0.43;100.00;95122.44;5034684;28;20472;-73
2021/12/11 03:21:49;;;;;;;4.13;2.40;;;;;;;-0.40;100.00;95132.53;5039936;28;20460;-74
2021/12/11 03:24:16;;;;;;;4.43;2.03;;;;;;;-0.42;100.00;95131.81;5026925;28;20515;-74
2021/12/11 03:26:44;;;;;;;3.83;2.17;;;;;;;-0.43;100.00;95135.34;5035387;28;20479;-74
2021/12/11 03:29:10;;;;;;;3.43;2.23;;;;;;;-0.43;100.00;95137.94;5034114;28;20644;-74
2021/12/11 03:31:38;;;;;;;3.73;2.10;;;;;;;-0.42;100.00;95146.50;5044714;28;21216;-74
2021/12/11 03:34:07;;;;;;;4.17;2.40;;;;;;;-0.44;100.00;95149.19;5035611;28;20801;-74
2021/12/11 03:36:34;;;;;;;4.07;2.37;;;;;;;-0.40;100.00;95157.50;5031016;28;20479;-74
2021/12/11 03:39:09;;;;;;;4.17;2.27;;;;;;;-0.42;100.00;95159.41;5022541;28;20991;-74
2021/12/11 03:41:36;;;;;;;4.53;2.63;;;;;;;-0.40;100.00;95167.84;5032715;28;20502;-74
2021/12/11 03:44:02;;;;;;;4.87;2.47;;;;;;;-0.43;100.00;95173.25;5038259;28;20521;-74
2021/12/11 03:46:28;;;;;;;6.43;3.20;;;;;;;-0.41;100.00;95177.34;5028564;28;20507;-74
2021/12/11 03:49:00;;;;;;;6.33;3.17;;;;;;;-0.41;100.00;95182.50;5030161;28;20495;-74
2021/12/11 03:51:32;;;;;;;5.80;2.70;;;;;;;-0.38;100.00;95184.88;5022615;28;20068;-74
2021/12/11 03:54:01;;;;;;;6.83;3.40;;;;;;;-0.40;100.00;95189.34;5040155;28;21068;-74
2021/12/11 03:56:27;;;;;;;5.43;2.83;;;;;;;-0.40;100.00;95193.66;5044337;28;20790;-74
2021/12/11 03:58:53;;;;;;;5.80;3.23;;;;;;;-0.40;100.00;95193.66;5039827;28;20471;-74
2021/12/11 04:01:30;;;;;;;5.70;3.40;;;;;;;-0.37;100.00;95204.63;5032418;28;20025;-74
2021/12/11 04:04:07;;;;;;;5.83;3.67;;;;;;;-0.39;100.00;95200.50;5030815;28;20522;-74
2021/12/11 04:06:33;;;;;;;6.10;3.53;;;;;;;-0.40;100.00;95201.41;5024443;28;20496;-75
2021/12/11 04:09:01;;;;;;;7.23;4.47;;;;;;;-0.38;100.00;95223.63;5029528;28;20451;-75
2021/12/11 04:11:31;;;;;;;6.80;4.30;;;;;;;-0.38;100.00;95215.03;5035305;28;20543;-74
2021/12/11 04:14:03;;;;;;;6.03;4.00;;;;;;;-0.39;100.00;95231.50;5022991;28;20456;-74
2021/12/11 04:16:29;;;;;;;7.27;4.63;;;;;;;-0.41;100.00;95238.53;5039406;28;20467;-75
2021/12/11 04:18:55;;;;;;;7.57;4.50;;;;;;;-0.42;100.00;95242.88;5040724;28;20452;-75
2021/12/11 04:21:21;;;;;;;7.40;5.07;;;;;;;-0.36;100.00;95244.19;5030765;28;20131;-74
2021/12/11 04:23:48;;;;;;;8.37;5.50;;;;;;;-0.38;100.00;95246.03;5043946;28;20501;-74
2021/12/11 04:26:14;;;;;;;7.30;5.10;;;;;;;-0.37;100.00;95250.25;5036558;28;20512;-74
2021/12/11 04:28:41;;;;;;;9.77;5.90;;;;;;;-0.37;100.00;95250.25;5039462;28;20526;-75
2021/12/11 04:31:12;;;;;;;7.50;5.30;;;;;;;-0.35;100.00;95256.97;5032903;28;20444;-73
2021/12/11 04:33:42;;;;;;;7.90;5.07;;;;;;;-0.38;100.00;95262.34;5013517;28;20456;-73
2021/12/11 04:36:12;;;;;;;8.77;5.27;;;;;;;-0.34;100.00;95265.53;5029986;28;20483;-74
2021/12/11 04:38:39;;;;;;;9.50;5.90;;;;;;;-0.37;100.00;95266.59;5037897;28;20548;-74
2021/12/11 04:41:07;;;;;;;9.93;6.30;;;;;;;-0.36;100.00;95272.59;5028547;28;20526;-77
2021/12/11 04:43:34;;;;;;;9.00;6.37;;;;;;;-0.37;100.00;95274.34;5024385;28;20448;-75
2021/12/11 04:46:06;;;;;;;12.30;6.90;;;;;;;-0.38;100.00;95274.47;5030061;28;20487;-74
2021/12/11 04:48:44;;;;;;;9.57;6.73;;;;;;;-0.40;100.00;95284.06;5010153;28;20492;-74
2021/12/11 04:51:27;;;;;;;10.77;6.63;;;;;;;-0.43;100.00;95287.72;5027955;28;20440;-73
2021/12/11 04:54:22;;;;;;;10.17;6.80;;;;;;;-0.41;100.00;95296.16;5030111;28;20475;-73
2021/12/11 05:04:58;;;;;;;10.33;6.70;;;;;;;-0.41;100.00;95316.84;5023534;28;20470;-74
2021/12/11 05:07:39;;;;;;;9.13;6.03;;;;;;;-0.31;100.00;95317.78;5033057;28;20483;-74
2021/12/11 05:10:17;;;;;;;10.00;6.60;;;;;;;-0.38;100.00;95326.94;5018890;28;21005;-77
2021/12/11 05:12:49;;;;;;;9.03;5.50;;;;;;;-0.35;100.00;95333.63;5019895;28;20556;-74
2021/12/11 05:15:22;;;;;;;8.07;5.53;;;;;;;-0.30;100.00;95336.72;5029280;28;20452;-74
2021/12/11 05:17:49;;;;;;;8.82;5.43;;;;;;;-0.33;100.00;95336.94;5033195;28;20472;-74
2021/12/11 05:20:19;;;;;;;9.07;5.83;;;;;;;-0.40;100.00;95343.47;5029429;28;20036;-73
2021/12/11 05:22:46;;;;;;;9.40;6.00;;;;;;;-0.40;100.00;95359.81;5029268;28;20463;-73
2021/12/11 05:25:12;;;;;;;9.73;6.20;;;;;;;-0.43;100.00;95354.06;5029161;28;20416;-73
2021/12/11 05:27:41;;;;;;;9.83;5.87;;;;;;;-0.38;100.00;95363.09;5036593;28;20460;-73
2021/12/11 05:30:15;;;;;;;10.67;6.27;;;;;;;-0.44;100.00;95360.97;5048904;28;20425;-73
2021/12/11 05:32:41;;;;;;;11.97;6.77;;;;;;;-0.45;100.00;95371.44;5032431;28;20479;-74
2021/12/11 05:35:08;;;;;;;9.70;6.00;;;;;;;-0.44;100.00;95373.88;5048732;28;20432;-73
2021/12/11 05:37:35;;;;;;;10.93;7.30;;;;;;;-0.41;100.00;95381.41;5050232;28;20036;-73
2021/12/11 05:40:03;;;;;;;11.33;7.33;;;;;;;-0.46;100.00;95388.69;5032397;28;20470;-73
2021/12/11 05:42:29;;;;;;;13.30;8.30;;;;;;;-0.44;100.00;95389.38;5048938;28;20439;-74
2021/12/11 05:44:54;;;;;;;15.17;9.77;;;;;;;-0.48;100.00;95399.13;5048887;28;20436;-73
2021/12/11 05:47:20;;;;;;;13.43;9.47;;;;;;;-0.49;100.00;95404.41;5048830;28;20041;-73
2021/12/11 05:49:47;;;;;;;16.13;10.43;;;;;;;-0.52;100.00;95402.84;5048628;28;20029;-72
2021/12/11 05:52:13;;;;;;;16.87;10.00;;;;;;;-0.52;100.00;95405.44;5019349;28;20046;-74
2021/12/11 05:54:41;;;;;;;15.13;9.70;;;;;;;-0.49;100.00;95407.81;5030914;28;20450;-75
2021/12/11 05:57:11;;;;;;;16.93;10.50;;;;;;;-0.43;100.00;95410.88;5022045;28;20452;-75
2021/12/11 05:59:40;;;;;;;18.17;12.30;;;;;;;-0.49;100.00;95415.56;5033509;28;20444;-75
2021/12/11 06:02:17;;;;;;;23.40;13.53;;;;;;;-0.51;100.00;95425.16;5023600;28;20519;-76
2021/12/11 06:04:46;;;;;;;17.73;10.47;;;;;;;-0.40;100.00;95431.31;5055225;28;20479;-76
2021/12/11 06:07:15;;;;;;;18.87;11.70;;;;;;;-0.48;100.00;95435.28;5034784;28;20550;-74
2021/12/11 06:09:46;;;;;;;18.10;10.77;;;;;;;-0.50;100.00;95441.50;5036691;28;20443;-73
2021/12/11 06:12:16;;;;;;;17.90;11.37;;;;;;;-0.49;100.00;95451.72;5031585;28;21072;-73
2021/12/11 06:14:43;;;;;;;18.73;11.47;;;;;;;-0.49;100.00;95462.03;5031577;28;20963;-73
2021/12/11 06:17:11;;;;;;;17.93;11.77;;;;;;;-0.51;100.00;95469.06;5048763;28;20479;-72
2021/12/11 06:19:37;;;;;;;20.67;12.20;;;;;;;-0.52;100.00;95479.53;5042336;28;21034;-74
2021/12/11 06:22:04;;;;;;;20.07;11.87;;;;;;;-0.51;100.00;95476.00;5019910;28;20500;-74
2021/12/11 06:24:30;;;;;;;21.80;13.47;;;;;;;-0.54;100.00;95482.22;5025460;28;20875;-74
2021/12/11 06:26:57;;;;;;;27.10;15.97;;;;;;;-0.48;100.00;95492.09;5016928;28;20480;-75
2021/12/11 06:29:24;;;;;;;29.10;17.60;;;;;;;-0.51;100.00;95499.25;5039632;28;20033;-73
2021/12/11 06:31:51;;;;;;;26.93;16.07;;;;;;;-0.52;100.00;95495.00;5031173;28;20858;-74
2021/12/11 06:34:17;;;;;;;19.50;11.73;;;;;;;-0.57;100.00;95508.28;5022989;28;20558;-74
2021/12/11 06:36:45;;;;;;;19.43;12.07;;;;;;;-0.53;100.00;95511.44;5036881;28;20988;-74
2021/12/11 06:39:16;;;;;;;19.90;12.97;;;;;;;-0.50;100.00;95522.38;5029515;28;20456;-74
2021/12/11 06:41:49;;;;;;;19.25;12.18;;;;;;;-0.55;100.00;95537.38;5023652;28;20455;-73
2021/12/11 06:44:15;;;;;;;19.30;12.30;;;;;;;-0.59;100.00;95541.13;5034966;28;20029;-73
2021/12/11 06:46:41;;;;;;;20.47;11.37;;;;;;;-0.60;100.00;95548.97;5033891;28;20464;-73
2021/12/11 06:49:08;;;;;;;20.00;13.10;;;;;;;-0.59;100.00;95554.03;5027976;28;20491;-75
2021/12/11 06:51:35;;;;;;;22.47;14.17;;;;;;;-0.56;100.00;95561.56;5019521;28;20456;-74
2021/12/11 06:54:06;;;;;;;20.90;11.93;;;;;;;-0.54;100.00;95564.88;5027513;28;20464;-74
2021/12/11 06:56:32;;;;;;;24.37;15.03;;;;;;;-0.50;100.00;95570.66;5032755;28;20494;-74
2021/12/11 06:58:59;;;;;;;58.90;34.73;;;;;;;-0.50;100.00;95586.13;5029770;28;20471;-74
2021/12/11 07:01:27;;;;;;;36.43;21.80;;;;;;;-0.53;100.00;95578.59;5030250;28;20578;-74
2021/12/11 07:03:54;;;;;;;24.53;14.20;;;;;;;-0.50;100.00;95583.56;5037933;28;20435;-75
2021/12/11 07:06:22;;;;;;;24.97;15.23;;;;;;;-0.43;100.00;95592.53;5044224;28;20992;-75
2021/12/11 07:08:49;;;;;;;26.30;14.03;;;;;;;-0.49;100.00;95591.19;5018112;28;20471;-76
2021/12/11 07:11:16;;;;;;;24.97;11.87;;;;;;;-0.54;100.00;95595.00;5017629;28;20455;-75
2021/12/11 07:13:43;;;;;;;17.23;10.47;;;;;;;-0.55;100.00;95596.78;5036647;28;20455;-75
2021/12/11 07:16:10;;;;;;;17.50;10.00;;;;;;;-0.55;100.00;95608.88;5035579;28;20448;-74
2021/12/11 07:18:37;;;;;;;19.43;10.57;;;;;;;-0.56;100.00;95615.78;5037161;28;20979;-75
2021/12/11 07:21:04;;;;;;;19.13;11.97;;;;;;;-0.55;100.00;95619.19;5028966;28;20896;-75
2021/12/11 07:23:31;;;;;;;19.57;12.23;;;;;;;-0.52;100.00;95630.13;5014380;28;20444;-74
2021/12/11 07:26:15;;;;;;;20.80;11.80;;;;;;;-0.54;100.00;95633.75;5036731;28;21115;-74
2021/12/11 07:28:46;;;;;;;22.23;13.63;;;;;;;-0.57;100.00;95641.72;5034774;28;21012;-74
2021/12/11 07:31:12;;;;;;;22.27;13.30;;;;;;;-0.50;100.00;95646.38;5034944;28;20521;-74
2021/12/11 07:33:37;;;;;;;24.67;13.77;;;;;;;-0.51;100.00;95649.84;5038376;28;20991;-74
2021/12/11 07:36:04;;;;;;;22.67;13.33;;;;;;;-0.55;100.00;95645.84;5032696;28;20506;-74
2021/12/11 07:38:32;;;;;;;24.63;13.60;;;;;;;-0.46;100.00;95664.22;5031086;28;20030;-74
2021/12/11 07:41:02;;;;;;;24.03;14.07;;;;;;;-0.50;100.00;95669.59;5031005;28;20542;-74
2021/12/11 07:43:28;;;;;;;20.90;11.27;;;;;;;-0.43;100.00;95672.59;5030955;28;20436;-74
2021/12/11 07:45:56;;;;;;;18.80;12.23;;;;;;;-0.53;100.00;95680.16;5031873;28;20462;-73
2021/12/11 07:48:23;;;;;;;22.93;11.57;;;;;;;-0.56;100.00;95684.69;5014334;28;20463;-73
2021/12/11 07:50:49;;;;;;;18.00;11.50;;;;;;;-0.52;100.00;95692.13;5030532;28;20451;-73
2021/12/11 07:53:18;;;;;;;18.33;10.97;;;;;;;-0.48;100.00;95698.72;5026921;28;21347;-73
2021/12/11 07:55:44;;;;;;;21.43;11.80;;;;;;;-0.54;100.00;95706.06;5030297;28;20412;-74
2021/12/11 07:58:10;;;;;;;19.70;12.67;;;;;;;-0.52;100.00;95704.22;5030054;28;20933;-73
2021/12/11 08:00:39;;;;;;;21.93;11.43;;;;;;;-0.49;100.00;95712.56;5035288;28;20481;-75
2021/12/11 08:03:08;;;;;;;19.50;12.10;;;;;;;-0.44;100.00;95724.34;5023377;28;20112;-75
2021/12/11 08:05:34;;;;;;;19.73;11.07;;;;;;;-0.46;100.00;95721.88;5011611;28;20465;-75
2021/12/11 08:08:03;;;;;;;20.20;11.17;;;;;;;-0.49;100.00;95727.25;5038760;28;21068;-74
2021/12/11 08:10:30;;;;;;;20.97;11.70;;;;;;;-0.41;100.00;95739.63;5030608;28;20483;-74
2021/12/11 08:12:58;;;;;;;16.07;10.83;;;;;;;-0.45;100.00;95733.84;5016970;28;21068;-74
2021/12/11 08:15:24;;;;;;;21.60;11.93;;;;;;;-0.46;100.00;95741.72;4993952;28;20465;-73
2021/12/11 08:17:54;;;;;;;18.20;11.20;;;;;;;-0.47;100.00;95733.13;4994040;28;21108;-74
2021/12/11 08:20:31;;;;;;;22.17;12.83;;;;;;;-0.35;100.00;95744.41;5010015;28;20534;-74
2021/12/11 08:22:57;;;;;;;22.40;12.53;;;;;;;-0.32;100.00;95759.69;4993598;28;20476;-74
2021/12/11 08:25:26;;;;;;;24.30;13.80;;;;;;;-0.28;100.00;95772.28;5019632;28;20466;-75
2021/12/11 08:27:54;;;;;;;25.07;13.93;;;;;;;-0.31;100.00;95769.09;5039858;28;20475;-75
2021/12/11 08:30:21;;;;;;;27.10;13.03;;;;;;;-0.31;100.00;95777.66;5039623;28;20454;-76
2021/12/11 08:32:47;;;;;;;23.37;13.47;;;;;;;-0.25;100.00;95787.59;5014139;28;20463;-75
2021/12/11 08:35:15;;;;;;;18.37;11.13;;;;;;;-0.28;100.00;95798.13;5027976;28;20494;-75
2021/12/11 08:37:44;;;;;;;24.00;12.97;;;;;;;-0.26;100.00;95803.19;5025240;28;20484;-75
2021/12/11 08:40:15;;;;;;;18.60;11.00;;;;;;;-0.24;100.00;95811.66;5040987;28;21082;-74
2021/12/11 08:42:42;;;;;;;18.17;11.93;;;;;;;-0.30;100.00;95815.50;5043972;28;20531;-74
2021/12/11 08:45:13;;;;;;;22.00;13.10;;;;;;;-0.32;100.00;95817.34;5031775;28;20549;-74
2021/12/11 08:47:41;;;;;;;20.00;12.47;;;;;;;-0.22;100.00;95827.06;5053466;28;20496;-75
2021/12/11 08:50:13;;;;;;;19.87;12.20;;;;;;;-0.25;100.00;95826.34;5058624;28;20497;-76
2021/12/11 08:52:43;;;;;;;23.20;12.23;;;;;;;-0.09;100.00;95833.06;5035118;28;20463;-76
2021/12/11 08:55:13;;;;;;;23.03;14.20;;;;;;;-0.13;100.00;95841.97;5040002;28;20440;-75
2021/12/11 08:57:41;;;;;;;23.13;13.37;;;;;;;-0.19;100.00;95837.22;5023145;28;21075;-74
2021/12/11 09:00:28;;;;;;;21.57;13.40;;;;;;;-0.14;100.00;95842.88;5029849;28;20456;-74
2021/12/11 09:03:08;;;;;;;24.83;16.10;;;;;;;-0.07;100.00;95849.28;5012283;28;21457;-74
2021/12/11 09:05:50;;;;;;;21.83;15.13;;;;;;;-0.11;100.00;95845.25;5041094;28;20541;-75
2021/12/11 09:08:21;;;;;;;20.73;13.57;;;;;;;-0.09;100.00;95864.09;5034254;28;20464;-75
2021/12/11 09:10:53;;;;;;;30.73;21.10;;;;;;;-0.05;100.00;95865.53;5033351;28;20460;-74
2021/12/11 09:13:31;;;;;;;19.83;13.63;;;;;;;-0.08;100.00;95869.13;5007980;28;21109;-74
2021/12/11 09:16:00;;;;;;;24.37;16.37;;;;;;;-0.04;100.00;95883.50;5010768;28;21024;-75
2021/12/11 09:18:52;;;;;;;20.70;13.70;;;;;;;-0.03;100.00;95881.78;5030428;28;20463;-75
2021/12/11 09:21:25;;;;;;;18.33;12.17;;;;;;;-0.09;100.00;95897.69;5028444;28;20456;-75
2021/12/11 09:24:05;;;;;;;22.33;15.57;;;;;;;-0.03;100.00;95894.69;5021483;28;20461;-75
2021/12/11 09:26:49;;;;;;;29.13;16.20;;;;;;;-0.04;100.00;95909.34;5036086;28;20487;-74
2021/12/11 09:29:24;;;;;;;27.30;15.52;;;;;;;-0.04;100.00;95905.94;5027363;28;20467;-74
2021/12/11 09:32:28;;;;;;;28.83;17.07;;;;;;;-0.06;100.00;95919.00;5028380;28;20067;-75
2021/12/11 09:35:10;;;;;;;28.27;17.55;;;;;;;-0.09;100.00;95926.13;5034123;28;20477;-74
2021/12/11 09:37:38;;;;;;;29.00;17.50;;;;;;;-0.08;100.00;95928.59;5018613;28;20033;-74
2021/12/11 09:40:15;;;;;;;28.73;17.37;;;;;;;-0.15;100.00;95937.69;5037256;28;20431;-74
2021/12/11 09:42:41;;;;;;;36.90;18.73;;;;;;;-0.14;100.00;95934.16;5037561;28;20463;-74
2021/12/11 09:45:21;;;;;;;27.43;18.03;;;;;;;-0.14;100.00;95946.25;5021215;28;20445;-74
2021/12/11 09:47:58;;;;;;;33.03;19.97;;;;;;;-0.12;100.00;95941.81;5040591;28;20021;-74
2021/12/11 09:50:34;;;;;;;34.83;20.57;;;;;;;-0.09;100.00;95942.44;5037611;28;20782;-74
2021/12/11 09:53:00;;;;;;;36.70;22.50;;;;;;;-0.09;100.00;95949.38;5038757;28;20476;-74
2021/12/11 09:55:33;;;;;;;37.10;21.60;;;;;;;-0.11;100.00;95954.63;5025430;28;21098;-74
2021/12/11 09:58:02;;;;;;;36.63;21.75;;;;;;;-0.13;100.00;95953.09;5025302;28;20033;-73
2021/12/11 10:00:35;;;;;;;40.07;24.20;;;;;;;-0.07;100.00;95955.25;5034170;28;20033;-74
2021/12/11 10:03:02;;;;;;;37.27;22.23;;;;;;;-0.12;100.00;95954.75;5029546;28;20771;-74
2021/12/11 10:05:45;;;;;;;40.97;23.80;;;;;;;-0.09;100.00;95960.53;5038682;28;20494;-74
2021/12/11 10:11:19;;;;;;;32.10;20.20;;;;;;;-0.02;100.00;95968.72;5026949;28;20201;-74
2021/12/11 10:13:58;;;;;;;32.70;20.77;;;;;;;-0.08;100.00;95969.13;5015262;28;20460;-74
2021/12/11 10:16:31;;;;;;;34.27;21.17;;;;;;;-0.08;100.00;95972.53;5033580;28;20494;-74
2021/12/11 10:18:57;;;;;;;36.08;22.52;;;;;;;-0.02;100.00;95972.13;5029580;28;20856;-74
2021/12/11 10:21:34;;;;;;;42.97;25.97;;;;;;;-0.09;100.00;95976.06;5019331;28;20087;-74
2021/12/11 10:24:03;;;;;;;37.57;23.17;;;;;;;0.03;100.00;95987.34;5036855;28;20443;-74
2021/12/11 10:26:29;;;;;;;38.37;24.07;;;;;;;0.06;100.00;95984.53;5029580;28;21151;-74
2021/12/11 10:28:59;;;;;;;37.17;24.23;;;;;;;0.04;100.00;95991.59;5041623;28;20518;-75
2021/12/11 10:31:33;;;;;;;38.03;22.33;;;;;;;0.03;100.00;95989.91;5011259;28;21020;-74
2021/12/11 10:34:02;;;;;;;41.57;23.70;;;;;;;-0.03;100.00;95992.94;5033852;28;20502;-74
2021/12/11 10:36:35;;;;;;;36.43;24.23;;;;;;;0.03;100.00;95992.50;5039727;28;20976;-75
2021/12/11 10:39:05;;;;;;;37.08;24.30;;;;;;;0.18;100.00;95998.44;5033639;28;20491;-74
2021/12/11 10:41:31;;;;;;;37.30;23.53;;;;;;;0.14;100.00;95995.22;5020161;28;20127;-74
2021/12/11 10:44:08;;;;;;;28.80;19.83;;;;;;;0.03;100.00;96002.84;5039891;28;21279;-75
2021/12/11 10:46:39;;;;;;;30.00;20.90;;;;;;;0.15;100.00;96008.97;5038523;28;20481;-75
2021/12/11 10:49:08;;;;;;;32.43;22.13;;;;;;;0.10;100.00;96009.28;5030960;28;20467;-75
2021/12/11 10:51:41;;;;;;;32.43;21.67;;;;;;;0.08;100.00;96016.31;5033994;28;20428;-74
2021/12/11 10:54:13;;;;;;;33.40;22.27;;;;;;;0.16;100.00;96014.03;5040086;28;20432;-75
2021/12/11 10:56:40;;;;;;;36.73;23.43;;;;;;;0.07;100.00;96017.25;5036368;28;20037;-74
2021/12/11 10:59:11;;;;;;;32.10;20.33;;;;;;;0.06;100.00;96012.16;5019062;28;20539;-74
2021/12/11 11:01:39;;;;;;;34.33;21.83;;;;;;;0.11;100.00;96018.69;5027747;28;20452;-74
2021/12/11 11:04:19;;;;;;;32.63;21.97;;;;;;;0.14;100.00;96023.66;5030029;28;20467;-74
2021/12/11 11:06:46;;;;;;;29.80;19.63;;;;;;;0.13;100.00;96026.34;5021127;28;20483;-74
2021/12/11 11:09:14;;;;;;;31.50;20.77;;;;;;;0.13;100.00;96024.56;5030414;28;20467;-75
2021/12/11 11:11:40;;;;;;;35.17;21.70;;;;;;;0.14;100.00;96035.78;5023528;28;20457;-74
2021/12/11 11:14:10;;;;;;;53.17;32.17;;;;;;;0.13;100.00;96039.28;5041733;28;20460;-75
2021/12/11 11:16:42;;;;;;;48.17;29.53;;;;;;;0.22;100.00;96033.50;5042877;28;20463;-75
2021/12/11 11:19:08;;;;;;;40.67;26.47;;;;;;;0.25;100.00;96045.41;5036310;28;20448;-74
2021/12/11 11:21:39;;;;;;;34.40;22.93;;;;;;;0.13;100.00;96047.84;5036613;28;20487;-74
2021/12/11 11:24:06;;;;;;;37.97;22.37;;;;;;;0.13;100.00;96052.19;5040955;28;20448;-73
2021/12/11 11:26:36;;;;;;;36.90;23.03;;;;;;;0.16;100.00;96057.16;5042705;28;20471;-74
2021/12/11 11:29:05;;;;;;;34.97;22.63;;;;;;;0.21;100.00;96061.13;5025010;28;20482;-74
2021/12/11 11:31:37;;;;;;;30.27;19.40;;;;;;;0.17;100.00;96067.44;5014521;28;20501;-74
2021/12/11 11:34:06;;;;;;;32.60;22.43;;;;;;;0.28;100.00;96071.06;5033739;28;20523;-73
2021/12/11 11:36:32;;;;;;;30.50;20.60;;;;;;;0.30;100.00;96076.97;5041938;28;20840;-74
2021/12/11 11:39:02;;;;;;;33.60;22.30;;;;;;;0.31;100.00;96079.47;5042496;28;20541;-74
2021/12/11 11:41:32;;;;;;;36.90;23.57;;;;;;;0.42;100.00;96074.41;5040568;28;20463;-74
2021/12/11 11:44:00;;;;;;;31.53;21.50;;;;;;;0.41;100.00;96077.09;5039831;28;20517;-74
2021/12/11 11:46:26;;;;;;;30.63;20.00;;;;;;;0.42;100.00;96091.69;5026004;28;21097;-73
2021/12/11 11:48:56;;;;;;;28.30;20.00;;;;;;;0.41;100.00;96093.44;5047833;28;20455;-74